Other Surface Observations
Issued by NWS

Home | Current Version | Previous Version | Text Only | Print | Product List | Glossary On
Versions: 1 2 3 4 5 6 7 8 9 10 11 12 13 14 15 16 17 18 19 20 21 22 23 24 25 26 27 28 29 30 31 32 33 34 35 36 37 38 39 40 41 42 43 44 45 46 47 48 49 50
000
SXUS56 KMFR 251509
OSO6S2
METAR K6S2 251455Z AUTO 12008G17KT 070V150 10SM SCT075 BKN090 14/09 A2934 RMK AO2 P0001



USA.gov is the U.S. government's official web portal to all federal, state and local government web resources and services.